<?xml version="1.0" encoding="UTF-8" standalone="no" ?>
<gpx xmlns="http://www.topografix.com/GPX/1/1" xmlns:xsi="http://www.w3.org/2001/XMLSchema-instance" xsi:schemaLocation="http://www.topografix.com/GPX/1/1 http://www.topografix.com/GPX/1/1/gpx.xsd" version="1.1" creator="VisuGPX - https://www.visugpx.com">
  <metadata>
    <name>Tour 4 km</name>
  </metadata>
  <trk>
    <name><![CDATA[Tour 4 km]]></name>
    <trkseg>
      <trkpt lat="43.67162" lon="3.84163">
        <ele>75.4</ele>
        <time>2020-03-26T15:35:49Z</time>
      </trkpt>
      <trkpt lat="43.67167" lon="3.8416">
        <ele>75.6</ele>
      </trkpt>
      <trkpt lat="43.67161" lon="3.84163">
        <ele>75.3</ele>
        <time>2020-03-26T15:35:51Z</time>
      </trkpt>
      <trkpt lat="43.67153" lon="3.84168">
        <ele>78.6</ele>
        <time>2020-03-26T15:36:04Z</time>
      </trkpt>
      <trkpt lat="43.67144" lon="3.84166">
        <ele>74.5</ele>
        <time>2020-03-26T15:36:15Z</time>
      </trkpt>
      <trkpt lat="43.67134" lon="3.84164">
        <ele>74.3</ele>
        <time>2020-03-26T15:36:27Z</time>
      </trkpt>
      <trkpt lat="43.67125" lon="3.84162">
        <ele>74.3</ele>
        <time>2020-03-26T15:36:39Z</time>
      </trkpt>
      <trkpt lat="43.67116" lon="3.84159">
        <ele>74.4</ele>
        <time>2020-03-26T15:36:49Z</time>
      </trkpt>
      <trkpt lat="43.67106" lon="3.84156">
        <ele>74.5</ele>
        <time>2020-03-26T15:37:00Z</time>
      </trkpt>
      <trkpt lat="43.67096" lon="3.84155">
        <ele>74.9</ele>
        <time>2020-03-26T15:37:11Z</time>
      </trkpt>
      <trkpt lat="43.67087" lon="3.84154">
        <ele>75.3</ele>
        <time>2020-03-26T15:37:20Z</time>
      </trkpt>
      <trkpt lat="43.67078" lon="3.84155">
        <ele>75.9</ele>
        <time>2020-03-26T15:37:33Z</time>
      </trkpt>
      <trkpt lat="43.67069" lon="3.84153">
        <ele>75.5</ele>
        <time>2020-03-26T15:37:43Z</time>
      </trkpt>
      <trkpt lat="43.67061" lon="3.84143">
        <ele>74.9</ele>
        <time>2020-03-26T15:39:06Z</time>
      </trkpt>
      <trkpt lat="43.67051" lon="3.84139">
        <ele>74.8</ele>
        <time>2020-03-26T15:39:18Z</time>
      </trkpt>
      <trkpt lat="43.6705" lon="3.8414">
        <ele>74.9</ele>
        <time>2020-03-26T15:39:25Z</time>
      </trkpt>
      <trkpt lat="43.6705" lon="3.8414">
        <ele>74.9</ele>
        <time>2020-03-26T15:39:25Z</time>
      </trkpt>
      <trkpt lat="43.67042" lon="3.84133">
        <ele>74.7</ele>
        <time>2020-03-26T15:39:41Z</time>
      </trkpt>
      <trkpt lat="43.67035" lon="3.84124">
        <ele>74.3</ele>
        <time>2020-03-26T15:39:57Z</time>
      </trkpt>
      <trkpt lat="43.67026" lon="3.84118">
        <ele>74</ele>
        <time>2020-03-26T15:40:07Z</time>
      </trkpt>
      <trkpt lat="43.67017" lon="3.84113">
        <ele>73.8</ele>
        <time>2020-03-26T15:40:12Z</time>
      </trkpt>
      <trkpt lat="43.67008" lon="3.84115">
        <ele>73.9</ele>
        <time>2020-03-26T15:40:20Z</time>
      </trkpt>
      <trkpt lat="43.66999" lon="3.8411">
        <ele>74.6</ele>
        <time>2020-03-26T15:40:23Z</time>
      </trkpt>
      <trkpt lat="43.6699" lon="3.84108">
        <ele>74.5</ele>
        <time>2020-03-26T15:40:32Z</time>
      </trkpt>
      <trkpt lat="43.66981" lon="3.84103">
        <ele>74.3</ele>
        <time>2020-03-26T15:40:35Z</time>
      </trkpt>
      <trkpt lat="43.66972" lon="3.84099">
        <ele>74.5</ele>
        <time>2020-03-26T15:40:42Z</time>
      </trkpt>
      <trkpt lat="43.66963" lon="3.84099">
        <ele>74.7</ele>
        <time>2020-03-26T15:40:56Z</time>
      </trkpt>
      <trkpt lat="43.66955" lon="3.84104">
        <ele>75</ele>
        <time>2020-03-26T15:41:01Z</time>
      </trkpt>
      <trkpt lat="43.66946" lon="3.84113">
        <ele>75.4</ele>
        <time>2020-03-26T15:41:07Z</time>
      </trkpt>
      <trkpt lat="43.66937" lon="3.84118">
        <ele>75.6</ele>
        <time>2020-03-26T15:41:12Z</time>
      </trkpt>
      <trkpt lat="43.6693" lon="3.84108">
        <ele>74.9</ele>
        <time>2020-03-26T15:41:32Z</time>
      </trkpt>
      <trkpt lat="43.66917" lon="3.84108">
        <ele>74.8</ele>
        <time>2020-03-26T15:41:49Z</time>
      </trkpt>
      <trkpt lat="43.66908" lon="3.84111">
        <ele>76.1</ele>
        <time>2020-03-26T15:41:59Z</time>
      </trkpt>
      <trkpt lat="43.66897" lon="3.84107">
        <ele>76.1</ele>
        <time>2020-03-26T15:42:09Z</time>
      </trkpt>
      <trkpt lat="43.66892" lon="3.84096">
        <ele>75.7</ele>
        <time>2020-03-26T15:42:19Z</time>
      </trkpt>
      <trkpt lat="43.66893" lon="3.84083">
        <ele>75.2</ele>
        <time>2020-03-26T15:42:28Z</time>
      </trkpt>
      <trkpt lat="43.66901" lon="3.84061">
        <ele>74.2</ele>
      </trkpt>
      <trkpt lat="43.66905" lon="3.84046">
        <ele>74.4</ele>
      </trkpt>
      <trkpt lat="43.66916" lon="3.84031">
        <ele>74</ele>
      </trkpt>
      <trkpt lat="43.6692" lon="3.84011">
        <ele>71</ele>
      </trkpt>
      <trkpt lat="43.66917" lon="3.83997">
        <ele>71.2</ele>
      </trkpt>
      <trkpt lat="43.66909" lon="3.83976">
        <ele>76.1</ele>
      </trkpt>
      <trkpt lat="43.66901" lon="3.83963">
        <ele>77.5</ele>
      </trkpt>
      <trkpt lat="43.66891" lon="3.83953">
        <ele>78.5</ele>
      </trkpt>
      <trkpt lat="43.66886" lon="3.83939">
        <ele>79</ele>
      </trkpt>
      <trkpt lat="43.66885" lon="3.83925">
        <ele>79.1</ele>
      </trkpt>
      <trkpt lat="43.66882" lon="3.83909">
        <ele>82.3</ele>
      </trkpt>
      <trkpt lat="43.6688" lon="3.83891">
        <ele>82.9</ele>
      </trkpt>
      <trkpt lat="43.66879" lon="3.83879">
        <ele>83.4</ele>
      </trkpt>
      <trkpt lat="43.6688" lon="3.83863">
        <ele>83.9</ele>
      </trkpt>
      <trkpt lat="43.66881" lon="3.83855">
        <ele>84</ele>
      </trkpt>
      <trkpt lat="43.6688" lon="3.83838">
        <ele>84.3</ele>
      </trkpt>
      <trkpt lat="43.66881" lon="3.83829">
        <ele>85.5</ele>
      </trkpt>
      <trkpt lat="43.66878" lon="3.83818">
        <ele>85.6</ele>
      </trkpt>
      <trkpt lat="43.66874" lon="3.83807">
        <ele>85.6</ele>
      </trkpt>
      <trkpt lat="43.66869" lon="3.83787">
        <ele>85.5</ele>
      </trkpt>
      <trkpt lat="43.66865" lon="3.83776">
        <ele>85.5</ele>
      </trkpt>
      <trkpt lat="43.66865" lon="3.83765">
        <ele>85.4</ele>
      </trkpt>
      <trkpt lat="43.66864" lon="3.83747">
        <ele>84.6</ele>
      </trkpt>
      <trkpt lat="43.66868" lon="3.83728">
        <ele>84.5</ele>
      </trkpt>
      <trkpt lat="43.66873" lon="3.83711">
        <ele>84.3</ele>
      </trkpt>
      <trkpt lat="43.66873" lon="3.83697">
        <ele>84.2</ele>
      </trkpt>
      <trkpt lat="43.66878" lon="3.83682">
        <ele>83.9</ele>
      </trkpt>
      <trkpt lat="43.66878" lon="3.83671">
        <ele>83.8</ele>
      </trkpt>
      <trkpt lat="43.66876" lon="3.83659">
        <ele>82.1</ele>
      </trkpt>
      <trkpt lat="43.66874" lon="3.83641">
        <ele>81.9</ele>
      </trkpt>
      <trkpt lat="43.66871" lon="3.83619">
        <ele>81.5</ele>
      </trkpt>
      <trkpt lat="43.66864" lon="3.83634">
        <ele>82.2</ele>
      </trkpt>
      <trkpt lat="43.66855" lon="3.83656">
        <ele>83.5</ele>
      </trkpt>
      <trkpt lat="43.66844" lon="3.83671">
        <ele>85.9</ele>
      </trkpt>
      <trkpt lat="43.66843" lon="3.83681">
        <ele>85.5</ele>
      </trkpt>
      <trkpt lat="43.66836" lon="3.83703">
        <ele>85</ele>
      </trkpt>
      <trkpt lat="43.6683" lon="3.8372">
        <ele>88.6</ele>
      </trkpt>
      <trkpt lat="43.6682" lon="3.83741">
        <ele>87.6</ele>
      </trkpt>
      <trkpt lat="43.66811" lon="3.83759">
        <ele>88</ele>
      </trkpt>
      <trkpt lat="43.66793" lon="3.83767">
        <ele>89.4</ele>
      </trkpt>
      <trkpt lat="43.66766" lon="3.83771">
        <ele>90.6</ele>
      </trkpt>
      <trkpt lat="43.66742" lon="3.83775">
        <ele>92.9</ele>
      </trkpt>
      <trkpt lat="43.6673" lon="3.83779">
        <ele>93.1</ele>
      </trkpt>
      <trkpt lat="43.66719" lon="3.83787">
        <ele>93.2</ele>
      </trkpt>
      <trkpt lat="43.66703" lon="3.83802">
        <ele>93.2</ele>
      </trkpt>
      <trkpt lat="43.66688" lon="3.83807">
        <ele>93.1</ele>
      </trkpt>
      <trkpt lat="43.66673" lon="3.83812">
        <ele>92.9</ele>
      </trkpt>
      <trkpt lat="43.66663" lon="3.83817">
        <ele>92.1</ele>
      </trkpt>
      <trkpt lat="43.6666" lon="3.83823">
        <ele>92.1</ele>
      </trkpt>
      <trkpt lat="43.6666" lon="3.83831">
        <ele>92</ele>
        <time>2020-03-26T15:49:13Z</time>
      </trkpt>
      <trkpt lat="43.6665" lon="3.83834">
        <ele>90.1</ele>
        <time>2020-03-26T15:49:21Z</time>
      </trkpt>
      <trkpt lat="43.66639" lon="3.83837">
        <ele>89.4</ele>
        <time>2020-03-26T15:49:31Z</time>
      </trkpt>
      <trkpt lat="43.66631" lon="3.83831">
        <ele>91.6</ele>
        <time>2020-03-26T15:49:41Z</time>
      </trkpt>
      <trkpt lat="43.66626" lon="3.83819">
        <ele>91.6</ele>
        <time>2020-03-26T15:49:52Z</time>
      </trkpt>
      <trkpt lat="43.66623" lon="3.83805">
        <ele>91.9</ele>
        <time>2020-03-26T15:50:02Z</time>
      </trkpt>
      <trkpt lat="43.66618" lon="3.83794">
        <ele>92.1</ele>
        <time>2020-03-26T15:50:13Z</time>
      </trkpt>
      <trkpt lat="43.66617" lon="3.83781">
        <ele>92.5</ele>
      </trkpt>
      <trkpt lat="43.66615" lon="3.83767">
        <ele>92.8</ele>
        <time>2020-03-26T15:50:37Z</time>
      </trkpt>
      <trkpt lat="43.66613" lon="3.83754">
        <ele>93</ele>
        <time>2020-03-26T15:50:42Z</time>
      </trkpt>
      <trkpt lat="43.66614" lon="3.83738">
        <ele>97.2</ele>
        <time>2020-03-26T15:50:46Z</time>
      </trkpt>
      <trkpt lat="43.66609" lon="3.83726">
        <ele>97.6</ele>
        <time>2020-03-26T15:50:52Z</time>
      </trkpt>
      <trkpt lat="43.66611" lon="3.83713">
        <ele>98.4</ele>
        <time>2020-03-26T15:50:57Z</time>
      </trkpt>
      <trkpt lat="43.6661" lon="3.83699">
        <ele>99.2</ele>
        <time>2020-03-26T15:51:10Z</time>
      </trkpt>
      <trkpt lat="43.66611" lon="3.83685">
        <ele>99.8</ele>
        <time>2020-03-26T15:51:28Z</time>
      </trkpt>
      <trkpt lat="43.66609" lon="3.8367">
        <ele>100.3</ele>
      </trkpt>
      <trkpt lat="43.66606" lon="3.83647">
        <ele>103.9</ele>
        <time>2020-03-26T15:52:09Z</time>
      </trkpt>
      <trkpt lat="43.66609" lon="3.83635">
        <ele>104.3</ele>
        <time>2020-03-26T15:52:24Z</time>
      </trkpt>
      <trkpt lat="43.66607" lon="3.83622">
        <ele>104.6</ele>
        <time>2020-03-26T15:52:32Z</time>
      </trkpt>
      <trkpt lat="43.66603" lon="3.83611">
        <ele>104.7</ele>
        <time>2020-03-26T15:52:42Z</time>
      </trkpt>
      <trkpt lat="43.666" lon="3.83599">
        <ele>104.9</ele>
        <time>2020-03-26T15:52:51Z</time>
      </trkpt>
      <trkpt lat="43.66601" lon="3.83584">
        <ele>105</ele>
        <time>2020-03-26T15:53:00Z</time>
      </trkpt>
      <trkpt lat="43.66599" lon="3.83572">
        <ele>106</ele>
        <time>2020-03-26T15:53:07Z</time>
      </trkpt>
      <trkpt lat="43.66603" lon="3.83561">
        <ele>106.4</ele>
        <time>2020-03-26T15:53:19Z</time>
      </trkpt>
      <trkpt lat="43.66606" lon="3.83549">
        <ele>106.6</ele>
        <time>2020-03-26T15:53:29Z</time>
      </trkpt>
      <trkpt lat="43.66612" lon="3.83539">
        <ele>106.7</ele>
        <time>2020-03-26T15:53:39Z</time>
      </trkpt>
      <trkpt lat="43.66615" lon="3.83527">
        <ele>106.8</ele>
        <time>2020-03-26T15:53:55Z</time>
      </trkpt>
      <trkpt lat="43.66617" lon="3.83514">
        <ele>106.9</ele>
        <time>2020-03-26T15:54:02Z</time>
      </trkpt>
      <trkpt lat="43.66617" lon="3.83502">
        <ele>107</ele>
        <time>2020-03-26T15:54:12Z</time>
      </trkpt>
      <trkpt lat="43.66613" lon="3.83489">
        <ele>107.4</ele>
        <time>2020-03-26T15:54:19Z</time>
      </trkpt>
      <trkpt lat="43.66614" lon="3.83476">
        <ele>107.4</ele>
        <time>2020-03-26T15:54:29Z</time>
      </trkpt>
      <trkpt lat="43.66616" lon="3.83464">
        <ele>107.4</ele>
        <time>2020-03-26T15:54:37Z</time>
      </trkpt>
      <trkpt lat="43.66618" lon="3.8345">
        <ele>107.5</ele>
        <time>2020-03-26T15:54:48Z</time>
      </trkpt>
      <trkpt lat="43.66625" lon="3.83442">
        <ele>107.3</ele>
        <time>2020-03-26T15:55:07Z</time>
      </trkpt>
      <trkpt lat="43.66634" lon="3.83444">
        <ele>107</ele>
        <time>2020-03-26T15:55:17Z</time>
      </trkpt>
      <trkpt lat="43.66644" lon="3.83445">
        <ele>106.8</ele>
        <time>2020-03-26T15:55:26Z</time>
      </trkpt>
      <trkpt lat="43.66653" lon="3.83451">
        <ele>106.7</ele>
        <time>2020-03-26T15:55:33Z</time>
      </trkpt>
      <trkpt lat="43.66662" lon="3.83452">
        <ele>106.6</ele>
      </trkpt>
      <trkpt lat="43.6667" lon="3.83453">
        <ele>101.1</ele>
      </trkpt>
      <trkpt lat="43.66681" lon="3.83452">
        <ele>100.6</ele>
      </trkpt>
      <trkpt lat="43.6669" lon="3.83455">
        <ele>100</ele>
      </trkpt>
      <trkpt lat="43.66699" lon="3.83459">
        <ele>99.3</ele>
      </trkpt>
      <trkpt lat="43.66706" lon="3.83461">
        <ele>98.7</ele>
      </trkpt>
      <trkpt lat="43.6672" lon="3.83461">
        <ele>97.5</ele>
        <time>2020-03-26T15:56:37Z</time>
      </trkpt>
      <trkpt lat="43.66729" lon="3.83458">
        <ele>96.8</ele>
        <time>2020-03-26T15:56:45Z</time>
      </trkpt>
      <trkpt lat="43.66738" lon="3.83459">
        <ele>96.3</ele>
        <time>2020-03-26T15:56:59Z</time>
      </trkpt>
      <trkpt lat="43.6674" lon="3.83445">
        <ele>96</ele>
        <time>2020-03-26T15:57:15Z</time>
      </trkpt>
      <trkpt lat="43.6674" lon="3.83433">
        <ele>95.3</ele>
      </trkpt>
      <trkpt lat="43.66738" lon="3.83418">
        <ele>94.6</ele>
      </trkpt>
      <trkpt lat="43.66738" lon="3.83404">
        <ele>96.6</ele>
      </trkpt>
      <trkpt lat="43.6674" lon="3.83384">
        <ele>98.5</ele>
      </trkpt>
      <trkpt lat="43.66746" lon="3.83365">
        <ele>99.3</ele>
      </trkpt>
      <trkpt lat="43.66757" lon="3.83356">
        <ele>95</ele>
      </trkpt>
      <trkpt lat="43.66762" lon="3.83337">
        <ele>96.4</ele>
      </trkpt>
      <trkpt lat="43.66767" lon="3.83325">
        <ele>98.9</ele>
      </trkpt>
      <trkpt lat="43.66773" lon="3.83312">
        <ele>99</ele>
        <time>2020-03-26T15:59:05Z</time>
      </trkpt>
      <trkpt lat="43.6677" lon="3.833">
        <ele>99.5</ele>
        <time>2020-03-26T15:59:14Z</time>
      </trkpt>
      <trkpt lat="43.66776" lon="3.8329">
        <ele>99.7</ele>
        <time>2020-03-26T15:59:27Z</time>
      </trkpt>
      <trkpt lat="43.66786" lon="3.83289">
        <ele>99.4</ele>
        <time>2020-03-26T15:59:38Z</time>
      </trkpt>
      <trkpt lat="43.66795" lon="3.83288">
        <ele>99</ele>
        <time>2020-03-26T15:59:48Z</time>
      </trkpt>
      <trkpt lat="43.66804" lon="3.83286">
        <ele>98.7</ele>
        <time>2020-03-26T15:59:56Z</time>
      </trkpt>
      <trkpt lat="43.66813" lon="3.83287">
        <ele>98.4</ele>
        <time>2020-03-26T16:00:08Z</time>
      </trkpt>
      <trkpt lat="43.66809" lon="3.83267">
        <ele>99.2</ele>
      </trkpt>
      <trkpt lat="43.66815" lon="3.83257">
        <ele>99.2</ele>
      </trkpt>
      <trkpt lat="43.66822" lon="3.83267">
        <ele>98.9</ele>
        <time>2020-03-26T16:00:32Z</time>
      </trkpt>
      <trkpt lat="43.66832" lon="3.83267">
        <ele>98.8</ele>
        <time>2020-03-26T16:00:43Z</time>
      </trkpt>
      <trkpt lat="43.66841" lon="3.83267">
        <ele>96.3</ele>
        <time>2020-03-26T16:00:52Z</time>
      </trkpt>
      <trkpt lat="43.66851" lon="3.83264">
        <ele>95.9</ele>
        <time>2020-03-26T16:01:01Z</time>
      </trkpt>
      <trkpt lat="43.6686" lon="3.83261">
        <ele>95.5</ele>
        <time>2020-03-26T16:01:09Z</time>
      </trkpt>
      <trkpt lat="43.66866" lon="3.83271">
        <ele>94.9</ele>
        <time>2020-03-26T16:01:23Z</time>
      </trkpt>
      <trkpt lat="43.66868" lon="3.83284">
        <ele>94.4</ele>
        <time>2020-03-26T16:01:35Z</time>
      </trkpt>
      <trkpt lat="43.6687" lon="3.83297">
        <ele>93.9</ele>
        <time>2020-03-26T16:01:45Z</time>
      </trkpt>
      <trkpt lat="43.66872" lon="3.8331">
        <ele>93.5</ele>
        <time>2020-03-26T16:01:52Z</time>
      </trkpt>
      <trkpt lat="43.66872" lon="3.83318">
        <ele>93.3</ele>
      </trkpt>
      <trkpt lat="43.66881" lon="3.83313">
        <ele>93.3</ele>
      </trkpt>
      <trkpt lat="43.6689" lon="3.83311">
        <ele>93.2</ele>
      </trkpt>
      <trkpt lat="43.66898" lon="3.83307">
        <ele>93.1</ele>
      </trkpt>
      <trkpt lat="43.66909" lon="3.83304">
        <ele>93.1</ele>
      </trkpt>
      <trkpt lat="43.66918" lon="3.833">
        <ele>92</ele>
      </trkpt>
      <trkpt lat="43.66936" lon="3.8329">
        <ele>92.2</ele>
        <time>2020-03-26T16:02:50Z</time>
      </trkpt>
      <trkpt lat="43.66953" lon="3.83286">
        <ele>92.1</ele>
        <time>2020-03-26T16:03:13Z</time>
      </trkpt>
      <trkpt lat="43.66962" lon="3.83281">
        <ele>92.1</ele>
        <time>2020-03-26T16:03:18Z</time>
      </trkpt>
      <trkpt lat="43.66972" lon="3.8328">
        <ele>92</ele>
        <time>2020-03-26T16:03:29Z</time>
      </trkpt>
      <trkpt lat="43.66981" lon="3.83277">
        <ele>92</ele>
        <time>2020-03-26T16:03:40Z</time>
      </trkpt>
      <trkpt lat="43.6699" lon="3.83275">
        <ele>92</ele>
        <time>2020-03-26T16:03:47Z</time>
      </trkpt>
      <trkpt lat="43.67" lon="3.83273">
        <ele>91.7</ele>
        <time>2020-03-26T16:03:57Z</time>
      </trkpt>
      <trkpt lat="43.6701" lon="3.83274">
        <ele>91.7</ele>
        <time>2020-03-26T16:04:06Z</time>
      </trkpt>
      <trkpt lat="43.67019" lon="3.83271">
        <ele>91.7</ele>
        <time>2020-03-26T16:04:14Z</time>
      </trkpt>
      <trkpt lat="43.67028" lon="3.83267">
        <ele>91.7</ele>
        <time>2020-03-26T16:04:24Z</time>
      </trkpt>
      <trkpt lat="43.67037" lon="3.83266">
        <ele>91.8</ele>
        <time>2020-03-26T16:04:34Z</time>
      </trkpt>
      <trkpt lat="43.67046" lon="3.83264">
        <ele>91.8</ele>
        <time>2020-03-26T16:04:42Z</time>
      </trkpt>
      <trkpt lat="43.67055" lon="3.8326">
        <ele>92</ele>
        <time>2020-03-26T16:04:51Z</time>
      </trkpt>
      <trkpt lat="43.67057" lon="3.83272">
        <ele>91.8</ele>
        <time>2020-03-26T16:05:14Z</time>
      </trkpt>
      <trkpt lat="43.67055" lon="3.83286">
        <ele>91.6</ele>
        <time>2020-03-26T16:05:24Z</time>
      </trkpt>
      <trkpt lat="43.67054" lon="3.83299">
        <ele>91.4</ele>
        <time>2020-03-26T16:05:32Z</time>
      </trkpt>
      <trkpt lat="43.67054" lon="3.83313">
        <ele>91.2</ele>
        <time>2020-03-26T16:05:42Z</time>
      </trkpt>
      <trkpt lat="43.67057" lon="3.83325">
        <ele>91</ele>
        <time>2020-03-26T16:05:54Z</time>
      </trkpt>
      <trkpt lat="43.67062" lon="3.83339">
        <ele>89.1</ele>
        <time>2020-03-26T16:06:02Z</time>
      </trkpt>
      <trkpt lat="43.67065" lon="3.83352">
        <ele>88.9</ele>
        <time>2020-03-26T16:06:11Z</time>
      </trkpt>
      <trkpt lat="43.67066" lon="3.83365">
        <ele>88.5</ele>
        <time>2020-03-26T16:06:18Z</time>
      </trkpt>
      <trkpt lat="43.67068" lon="3.83378">
        <ele>88.1</ele>
        <time>2020-03-26T16:06:25Z</time>
      </trkpt>
      <trkpt lat="43.67072" lon="3.83393">
        <ele>87.5</ele>
        <time>2020-03-26T16:06:31Z</time>
      </trkpt>
      <trkpt lat="43.67074" lon="3.83407">
        <ele>86.9</ele>
        <time>2020-03-26T16:06:36Z</time>
      </trkpt>
      <trkpt lat="43.67072" lon="3.83417">
        <ele>86.8</ele>
      </trkpt>
      <trkpt lat="43.67073" lon="3.83429">
        <ele>85.3</ele>
      </trkpt>
      <trkpt lat="43.67073" lon="3.83443">
        <ele>85</ele>
      </trkpt>
      <trkpt lat="43.67072" lon="3.83456">
        <ele>84.8</ele>
        <time>2020-03-26T16:06:56Z</time>
      </trkpt>
      <trkpt lat="43.67073" lon="3.83473">
        <ele>84.8</ele>
      </trkpt>
      <trkpt lat="43.67071" lon="3.83486">
        <ele>84.9</ele>
      </trkpt>
      <trkpt lat="43.67072" lon="3.835">
        <ele>85.2</ele>
      </trkpt>
      <trkpt lat="43.67072" lon="3.83515">
        <ele>83.8</ele>
      </trkpt>
      <trkpt lat="43.67072" lon="3.83529">
        <ele>83.1</ele>
      </trkpt>
      <trkpt lat="43.67076" lon="3.83544">
        <ele>82.8</ele>
      </trkpt>
      <trkpt lat="43.67073" lon="3.83554">
        <ele>82.7</ele>
      </trkpt>
      <trkpt lat="43.67074" lon="3.83569">
        <ele>82.9</ele>
      </trkpt>
      <trkpt lat="43.67073" lon="3.83581">
        <ele>83.2</ele>
        <time>2020-03-26T16:07:57Z</time>
      </trkpt>
      <trkpt lat="43.67078" lon="3.83596">
        <ele>83.3</ele>
      </trkpt>
      <trkpt lat="43.67084" lon="3.83609">
        <ele>85.7</ele>
      </trkpt>
      <trkpt lat="43.67087" lon="3.83616">
        <ele>85.9</ele>
      </trkpt>
      <trkpt lat="43.67091" lon="3.83628">
        <ele>86</ele>
      </trkpt>
      <trkpt lat="43.67099" lon="3.8364">
        <ele>85.9</ele>
      </trkpt>
      <trkpt lat="43.67106" lon="3.83648">
        <ele>85.9</ele>
      </trkpt>
      <trkpt lat="43.67112" lon="3.83657">
        <ele>85.8</ele>
        <time>2020-03-26T16:09:47Z</time>
      </trkpt>
      <trkpt lat="43.6712" lon="3.83661">
        <ele>85.8</ele>
      </trkpt>
      <trkpt lat="43.67128" lon="3.83664">
        <ele>85.7</ele>
      </trkpt>
      <trkpt lat="43.67134" lon="3.83668">
        <ele>82.3</ele>
      </trkpt>
      <trkpt lat="43.67144" lon="3.83672">
        <ele>82.2</ele>
      </trkpt>
      <trkpt lat="43.67154" lon="3.83678">
        <ele>82.2</ele>
      </trkpt>
      <trkpt lat="43.67162" lon="3.83683">
        <ele>82.1</ele>
      </trkpt>
      <trkpt lat="43.67169" lon="3.83692">
        <ele>81.2</ele>
      </trkpt>
      <trkpt lat="43.67176" lon="3.83699">
        <ele>80.8</ele>
      </trkpt>
      <trkpt lat="43.67186" lon="3.83706">
        <ele>80.5</ele>
      </trkpt>
      <trkpt lat="43.67193" lon="3.83712">
        <ele>80.4</ele>
      </trkpt>
      <trkpt lat="43.67201" lon="3.83718">
        <ele>80.3</ele>
      </trkpt>
      <trkpt lat="43.6721" lon="3.83727">
        <ele>80.2</ele>
      </trkpt>
      <trkpt lat="43.6722" lon="3.83731">
        <ele>80.3</ele>
      </trkpt>
      <trkpt lat="43.6723" lon="3.83731">
        <ele>80.4</ele>
      </trkpt>
      <trkpt lat="43.67239" lon="3.83736">
        <ele>80.3</ele>
        <time>2020-03-26T16:12:10Z</time>
      </trkpt>
      <trkpt lat="43.6724" lon="3.8374">
        <ele>80.3</ele>
      </trkpt>
      <trkpt lat="43.67251" lon="3.83744">
        <ele>81</ele>
      </trkpt>
      <trkpt lat="43.67267" lon="3.83734">
        <ele>82.6</ele>
      </trkpt>
      <trkpt lat="43.6728" lon="3.83727">
        <ele>83.4</ele>
      </trkpt>
      <trkpt lat="43.67295" lon="3.8372">
        <ele>84</ele>
      </trkpt>
      <trkpt lat="43.67304" lon="3.8372">
        <ele>84.3</ele>
        <time>2020-03-26T16:13:22Z</time>
      </trkpt>
      <trkpt lat="43.67312" lon="3.83714">
        <ele>84.5</ele>
        <time>2020-03-26T16:13:33Z</time>
      </trkpt>
      <trkpt lat="43.67321" lon="3.83712">
        <ele>84.7</ele>
        <time>2020-03-26T16:13:44Z</time>
      </trkpt>
      <trkpt lat="43.6733" lon="3.83709">
        <ele>84.7</ele>
        <time>2020-03-26T16:13:50Z</time>
      </trkpt>
      <trkpt lat="43.67337" lon="3.837">
        <ele>86.3</ele>
        <time>2020-03-26T16:13:56Z</time>
      </trkpt>
      <trkpt lat="43.67346" lon="3.83697">
        <ele>86.3</ele>
        <time>2020-03-26T16:14:04Z</time>
      </trkpt>
      <trkpt lat="43.67355" lon="3.83686">
        <ele>86.3</ele>
      </trkpt>
      <trkpt lat="43.67366" lon="3.837">
        <ele>86.6</ele>
      </trkpt>
      <trkpt lat="43.67373" lon="3.83715">
        <ele>86.8</ele>
      </trkpt>
      <trkpt lat="43.67375" lon="3.8372">
        <ele>86.8</ele>
      </trkpt>
      <trkpt lat="43.67385" lon="3.83728">
        <ele>86.9</ele>
      </trkpt>
      <trkpt lat="43.67391" lon="3.8373">
        <ele>86.9</ele>
      </trkpt>
      <trkpt lat="43.67402" lon="3.83731">
        <ele>86.9</ele>
      </trkpt>
      <trkpt lat="43.67412" lon="3.83734">
        <ele>87</ele>
      </trkpt>
      <trkpt lat="43.67418" lon="3.83733">
        <ele>86.8</ele>
      </trkpt>
      <trkpt lat="43.67426" lon="3.83735">
        <ele>86.7</ele>
      </trkpt>
      <trkpt lat="43.6744" lon="3.83737">
        <ele>86.5</ele>
      </trkpt>
      <trkpt lat="43.67448" lon="3.83739">
        <ele>86.4</ele>
      </trkpt>
      <trkpt lat="43.67455" lon="3.83742">
        <ele>86.2</ele>
      </trkpt>
      <trkpt lat="43.67462" lon="3.83743">
        <ele>86.1</ele>
      </trkpt>
      <trkpt lat="43.67474" lon="3.83747">
        <ele>85.7</ele>
      </trkpt>
      <trkpt lat="43.67482" lon="3.83758">
        <ele>83.3</ele>
      </trkpt>
      <trkpt lat="43.67486" lon="3.83762">
        <ele>83.2</ele>
      </trkpt>
      <trkpt lat="43.6749" lon="3.83768">
        <ele>83.1</ele>
      </trkpt>
      <trkpt lat="43.67496" lon="3.83783">
        <ele>82.4</ele>
      </trkpt>
      <trkpt lat="43.67505" lon="3.83806">
        <ele>80.1</ele>
      </trkpt>
      <trkpt lat="43.67513" lon="3.83818">
        <ele>79.6</ele>
      </trkpt>
      <trkpt lat="43.67526" lon="3.83827">
        <ele>79.6</ele>
      </trkpt>
      <trkpt lat="43.67542" lon="3.83826">
        <ele>79.8</ele>
      </trkpt>
      <trkpt lat="43.67559" lon="3.83823">
        <ele>79.6</ele>
      </trkpt>
      <trkpt lat="43.67582" lon="3.83827">
        <ele>78.6</ele>
      </trkpt>
      <trkpt lat="43.67609" lon="3.83827">
        <ele>80.2</ele>
      </trkpt>
      <trkpt lat="43.6762" lon="3.83827">
        <ele>80.7</ele>
      </trkpt>
      <trkpt lat="43.67633" lon="3.83828">
        <ele>80.9</ele>
      </trkpt>
      <trkpt lat="43.67657" lon="3.83827">
        <ele>81.1</ele>
      </trkpt>
      <trkpt lat="43.67688" lon="3.83825">
        <ele>83</ele>
      </trkpt>
      <trkpt lat="43.67699" lon="3.8384">
        <ele>81</ele>
      </trkpt>
      <trkpt lat="43.67718" lon="3.83844">
        <ele>81.4</ele>
      </trkpt>
      <trkpt lat="43.67734" lon="3.83865">
        <ele>81.2</ele>
      </trkpt>
      <trkpt lat="43.67741" lon="3.83872">
        <ele>81</ele>
      </trkpt>
      <trkpt lat="43.67748" lon="3.83882">
        <ele>80.6</ele>
      </trkpt>
      <trkpt lat="43.67759" lon="3.83897">
        <ele>80.6</ele>
      </trkpt>
      <trkpt lat="43.67744" lon="3.83929">
        <ele>79.1</ele>
      </trkpt>
      <trkpt lat="43.67729" lon="3.83944">
        <ele>79.1</ele>
      </trkpt>
      <trkpt lat="43.67711" lon="3.8396">
        <ele>79</ele>
      </trkpt>
      <trkpt lat="43.677" lon="3.83971">
        <ele>78.9</ele>
      </trkpt>
      <trkpt lat="43.67675" lon="3.83971">
        <ele>78.6</ele>
      </trkpt>
      <trkpt lat="43.67656" lon="3.83968">
        <ele>77.2</ele>
      </trkpt>
      <trkpt lat="43.67637" lon="3.83959">
        <ele>76.9</ele>
      </trkpt>
      <trkpt lat="43.67621" lon="3.83964">
        <ele>76.7</ele>
      </trkpt>
      <trkpt lat="43.67609" lon="3.8397">
        <ele>76.6</ele>
      </trkpt>
      <trkpt lat="43.67596" lon="3.83966">
        <ele>76.4</ele>
      </trkpt>
      <trkpt lat="43.67584" lon="3.83967">
        <ele>76.3</ele>
        <time>2020-03-26T16:25:26Z</time>
      </trkpt>
      <trkpt lat="43.67574" lon="3.83965">
        <ele>75.4</ele>
      </trkpt>
      <trkpt lat="43.67552" lon="3.8396">
        <ele>75.3</ele>
      </trkpt>
      <trkpt lat="43.67546" lon="3.83965">
        <ele>75.3</ele>
        <time>2020-03-26T16:25:56Z</time>
      </trkpt>
      <trkpt lat="43.67538" lon="3.83962">
        <ele>75.3</ele>
        <time>2020-03-26T16:26:05Z</time>
      </trkpt>
      <trkpt lat="43.67528" lon="3.83959">
        <ele>75.2</ele>
        <time>2020-03-26T16:26:14Z</time>
      </trkpt>
      <trkpt lat="43.67519" lon="3.83954">
        <ele>75.1</ele>
        <time>2020-03-26T16:26:23Z</time>
      </trkpt>
      <trkpt lat="43.67511" lon="3.8395">
        <ele>75</ele>
        <time>2020-03-26T16:26:35Z</time>
      </trkpt>
      <trkpt lat="43.67502" lon="3.83947">
        <ele>74.9</ele>
        <time>2020-03-26T16:26:45Z</time>
      </trkpt>
      <trkpt lat="43.67492" lon="3.83947">
        <ele>74.7</ele>
        <time>2020-03-26T16:26:55Z</time>
      </trkpt>
      <trkpt lat="43.67483" lon="3.83947">
        <ele>74.7</ele>
        <time>2020-03-26T16:27:02Z</time>
      </trkpt>
      <trkpt lat="43.67474" lon="3.83945">
        <ele>74.7</ele>
        <time>2020-03-26T16:27:10Z</time>
      </trkpt>
      <trkpt lat="43.67465" lon="3.83947">
        <ele>74.7</ele>
        <time>2020-03-26T16:27:18Z</time>
      </trkpt>
      <trkpt lat="43.67455" lon="3.83948">
        <ele>74.7</ele>
        <time>2020-03-26T16:27:29Z</time>
      </trkpt>
      <trkpt lat="43.67446" lon="3.83951">
        <ele>74.7</ele>
        <time>2020-03-26T16:27:37Z</time>
      </trkpt>
      <trkpt lat="43.67437" lon="3.83953">
        <ele>74.7</ele>
        <time>2020-03-26T16:27:43Z</time>
      </trkpt>
      <trkpt lat="43.67428" lon="3.8396">
        <ele>74.7</ele>
        <time>2020-03-26T16:27:54Z</time>
      </trkpt>
      <trkpt lat="43.6742" lon="3.83967">
        <ele>74.6</ele>
        <time>2020-03-26T16:28:03Z</time>
      </trkpt>
      <trkpt lat="43.67411" lon="3.83974">
        <ele>74.2</ele>
        <time>2020-03-26T16:28:10Z</time>
      </trkpt>
      <trkpt lat="43.67403" lon="3.83981">
        <ele>74.1</ele>
        <time>2020-03-26T16:28:17Z</time>
      </trkpt>
      <trkpt lat="43.67396" lon="3.83989">
        <ele>74.1</ele>
        <time>2020-03-26T16:28:25Z</time>
      </trkpt>
      <trkpt lat="43.67388" lon="3.83997">
        <ele>74.1</ele>
        <time>2020-03-26T16:28:35Z</time>
      </trkpt>
      <trkpt lat="43.6738" lon="3.84003">
        <ele>75.3</ele>
        <time>2020-03-26T16:28:45Z</time>
      </trkpt>
      <trkpt lat="43.67372" lon="3.84011">
        <ele>75.3</ele>
        <time>2020-03-26T16:28:57Z</time>
      </trkpt>
      <trkpt lat="43.67364" lon="3.84016">
        <ele>75.3</ele>
        <time>2020-03-26T16:29:06Z</time>
      </trkpt>
      <trkpt lat="43.67354" lon="3.84021">
        <ele>75.3</ele>
        <time>2020-03-26T16:29:17Z</time>
      </trkpt>
      <trkpt lat="43.67344" lon="3.84021">
        <ele>75</ele>
        <time>2020-03-26T16:29:23Z</time>
      </trkpt>
      <trkpt lat="43.67335" lon="3.84023">
        <ele>75</ele>
        <time>2020-03-26T16:29:28Z</time>
      </trkpt>
      <trkpt lat="43.67325" lon="3.84026">
        <ele>73.8</ele>
        <time>2020-03-26T16:29:38Z</time>
      </trkpt>
      <trkpt lat="43.67316" lon="3.84029">
        <ele>73.8</ele>
        <time>2020-03-26T16:29:46Z</time>
      </trkpt>
      <trkpt lat="43.67307" lon="3.84035">
        <ele>73.9</ele>
        <time>2020-03-26T16:29:55Z</time>
      </trkpt>
      <trkpt lat="43.67299" lon="3.84042">
        <ele>73.9</ele>
        <time>2020-03-26T16:30:02Z</time>
      </trkpt>
      <trkpt lat="43.67291" lon="3.84049">
        <ele>73.9</ele>
        <time>2020-03-26T16:30:12Z</time>
      </trkpt>
      <trkpt lat="43.67285" lon="3.84059">
        <ele>73.9</ele>
        <time>2020-03-26T16:30:23Z</time>
      </trkpt>
      <trkpt lat="43.67285" lon="3.84072">
        <ele>74.1</ele>
        <time>2020-03-26T16:30:32Z</time>
      </trkpt>
      <trkpt lat="43.67282" lon="3.84085">
        <ele>76.6</ele>
        <time>2020-03-26T16:30:43Z</time>
      </trkpt>
      <trkpt lat="43.67279" lon="3.84097">
        <ele>76.7</ele>
        <time>2020-03-26T16:30:53Z</time>
      </trkpt>
      <trkpt lat="43.67277" lon="3.84109">
        <ele>77</ele>
        <time>2020-03-26T16:31:03Z</time>
      </trkpt>
      <trkpt lat="43.67273" lon="3.84121">
        <ele>77.4</ele>
        <time>2020-03-26T16:31:13Z</time>
      </trkpt>
      <trkpt lat="43.6727" lon="3.84133">
        <ele>77.8</ele>
        <time>2020-03-26T16:31:25Z</time>
      </trkpt>
      <trkpt lat="43.67261" lon="3.84136">
        <ele>77.9</ele>
        <time>2020-03-26T16:31:41Z</time>
      </trkpt>
      <trkpt lat="43.67251" lon="3.84141">
        <ele>78</ele>
        <time>2020-03-26T16:31:50Z</time>
      </trkpt>
      <trkpt lat="43.67242" lon="3.84145">
        <ele>76.2</ele>
        <time>2020-03-26T16:32:00Z</time>
      </trkpt>
      <trkpt lat="43.67233" lon="3.84149">
        <ele>76.1</ele>
        <time>2020-03-26T16:32:10Z</time>
      </trkpt>
      <trkpt lat="43.67223" lon="3.84152">
        <ele>75.9</ele>
        <time>2020-03-26T16:32:19Z</time>
      </trkpt>
      <trkpt lat="43.67214" lon="3.84153">
        <ele>75.5</ele>
        <time>2020-03-26T16:32:27Z</time>
      </trkpt>
      <trkpt lat="43.67205" lon="3.84158">
        <ele>75.4</ele>
        <time>2020-03-26T16:32:38Z</time>
      </trkpt>
      <trkpt lat="43.67196" lon="3.84161">
        <ele>75.3</ele>
        <time>2020-03-26T16:32:46Z</time>
      </trkpt>
      <trkpt lat="43.67186" lon="3.84162">
        <ele>75.3</ele>
        <time>2020-03-26T16:32:54Z</time>
      </trkpt>
      <trkpt lat="43.67177" lon="3.84161">
        <ele>75.5</ele>
        <time>2020-03-26T16:33:05Z</time>
      </trkpt>
    </trkseg>
  </trk>
</gpx>